createdAt,value
2022-09-27T00:00:43.447Z,98307.97
2022-09-27T00:03:11.309Z,98310.06
2022-09-27T00:05:37.873Z,98314.91
2022-09-27T00:08:04.908Z,98311.47
2022-09-27T00:10:31.751Z,98313.28
2022-09-27T00:12:58.794Z,98311.56
2022-09-27T00:15:25.342Z,98307.72
2022-09-27T00:17:52.382Z,98315.63
2022-09-27T00:20:20.700Z,98309.22
2022-09-27T00:22:48.254Z,98317.78
2022-09-27T00:25:15.518Z,98309.84
2022-09-27T00:27:42.163Z,98307.75
2022-09-27T00:30:09.766Z,98314.25
2022-09-27T00:32:36.168Z,98312.81
2022-09-27T00:35:02.600Z,98307.28
2022-09-27T00:37:29.087Z,98312.28
2022-09-27T00:39:55.496Z,98307.19
2022-09-27T00:42:21.894Z,98313.03
2022-09-27T00:45:01.569Z,98311.94
2022-09-27T00:47:50.951Z,98314.69
2022-09-27T00:50:35.368Z,98315.22
2022-09-27T00:53:16.703Z,98317.34
2022-09-27T00:55:48.622Z,98310.41
2022-09-27T00:58:18.811Z,98309.00
2022-09-27T01:00:51.021Z,98302.06
2022-09-27T01:03:26.353Z,98307.72
2022-09-27T01:05:53.390Z,98304.53
2022-09-27T01:08:19.788Z,98303.25
2022-09-27T01:11:03.187Z,98305.06
2022-09-27T01:13:53.446Z,98303.97
2022-09-27T01:16:46.463Z,98308.56
2022-09-27T01:19:34.361Z,98308.25
2022-09-27T01:22:17.189Z,98311.59
2022-09-27T01:25:28.897Z,98306.25
2022-09-27T01:28:20.078Z,98306.63
2022-09-27T01:31:06.792Z,98299.13
2022-09-27T01:33:51.704Z,98305.41
2022-09-27T01:36:27.836Z,98308.22
2022-09-27T01:39:23.299Z,98307.00
2022-09-27T01:42:26.095Z,98315.75
2022-09-27T01:45:00.907Z,98315.41
2022-09-27T01:47:37.669Z,98314.22
2022-09-27T01:50:14.053Z,98308.06
2022-09-27T01:52:47.419Z,98306.97
2022-09-27T01:55:17.275Z,98313.03
2022-09-27T01:57:49.990Z,98321.31
2022-09-27T02:00:16.861Z,98321.41
2022-09-27T02:02:50.594Z,98318.19
2022-09-27T02:05:19.341Z,98327.09
2022-09-27T02:07:53.466Z,98319.19
2022-09-27T02:10:24.525Z,98323.19
2022-09-27T02:13:06.065Z,98319.97
2022-09-27T02:15:49.089Z,98315.47
2022-09-27T02:18:28.758Z,98321.56
2022-09-27T02:21:00.372Z,98328.53
2022-09-27T02:23:33.506Z,98321.31
2022-09-27T02:26:38.751Z,98322.81
2022-09-27T02:29:08.120Z,98332.72
2022-09-27T02:31:34.748Z,98336.66
2022-09-27T02:34:06.308Z,98340.81
2022-09-27T02:36:32.890Z,98338.41
2022-09-27T02:39:00.133Z,98346.91
2022-09-27T02:41:26.921Z,98362.19
2022-09-27T02:44:02.052Z,98369.88
2022-09-27T02:47:05.256Z,98375.84
2022-09-27T02:49:49.720Z,98377.75
2022-09-27T02:52:57.817Z,98382.44
2022-09-27T02:55:46.117Z,98391.81
2022-09-27T02:58:19.830Z,98395.09
2022-09-27T03:01:02.254Z,98402.56
2022-09-27T03:03:40.013Z,98408.09
2022-09-27T03:06:10.793Z,98402.06
2022-09-27T03:08:38.453Z,98405.03
2022-09-27T03:11:05.377Z,98411.69
2022-09-27T03:13:32.292Z,98412.63
2022-09-27T03:16:01.594Z,98410.19
2022-09-27T03:18:28.842Z,98413.50
2022-09-27T03:20:55.264Z,98413.00
2022-09-27T03:23:21.690Z,98410.19
2022-09-27T03:25:48.490Z,98418.38
2022-09-27T03:28:15.159Z,98418.94
2022-09-27T03:30:44.647Z,98421.22
2022-09-27T03:33:11.188Z,98417.34
2022-09-27T03:35:37.856Z,98419.31
2022-09-27T03:38:05.314Z,98416.94
2022-09-27T03:40:31.804Z,98417.03
2022-09-27T03:42:58.359Z,98420.44
2022-09-27T03:45:24.751Z,98422.34
2022-09-27T03:47:51.207Z,98422.91
2022-09-27T03:50:17.630Z,98419.91
2022-09-27T03:52:44.217Z,98424.63
2022-09-27T03:55:12.217Z,98421.88
2022-09-27T03:57:38.680Z,98414.66
2022-09-27T04:00:06.435Z,98418.53
2022-09-27T04:02:33.034Z,98431.84
2022-09-27T04:04:59.425Z,98429.94
2022-09-27T04:07:25.800Z,98435.00
2022-09-27T04:09:52.233Z,98448.13
2022-09-27T04:12:18.602Z,98447.34
2022-09-27T04:14:45.019Z,98437.28
2022-09-27T04:17:11.530Z,98446.22
2022-09-27T04:19:38.064Z,98445.34
2022-09-27T04:22:04.499Z,98441.38
2022-09-27T04:24:31.762Z,98445.25
2022-09-27T04:26:58.261Z,98448.00
2022-09-27T04:29:25.722Z,98449.38
2022-09-27T04:31:52.119Z,98452.78
2022-09-27T04:34:18.527Z,98448.78
2022-09-27T04:36:44.903Z,98452.38
2022-09-27T04:39:11.686Z,98451.44
2022-09-27T04:41:38.226Z,98448.41
2022-09-27T04:44:04.919Z,98455.59
2022-09-27T04:46:31.709Z,98454.75
2022-09-27T04:49:01.877Z,98451.94
2022-09-27T04:51:28.546Z,98447.91
2022-09-27T04:53:57.505Z,98459.50
2022-09-27T04:56:23.868Z,98458.19
2022-09-27T04:58:50.263Z,98453.63
2022-09-27T05:01:17.121Z,98455.53
2022-09-27T05:03:43.738Z,98461.50
2022-09-27T05:06:10.561Z,98462.56
2022-09-27T05:08:37.091Z,98457.59
2022-09-27T05:11:03.514Z,98462.63
2022-09-27T05:13:29.902Z,98471.31
2022-09-27T05:16:03.279Z,98475.16
2022-09-27T05:18:29.684Z,98483.84
2022-09-27T05:20:58.448Z,98484.28
2022-09-27T05:23:25.874Z,98481.25
2022-09-27T05:25:56.432Z,98480.91
2022-09-27T05:28:24.317Z,98484.69
2022-09-27T05:30:50.901Z,98479.16
2022-09-27T05:33:17.884Z,98478.19
2022-09-27T05:35:51.685Z,98490.63
2022-09-27T05:38:18.651Z,98488.63
2022-09-27T05:40:47.547Z,98491.13
2022-09-27T05:43:14.132Z,98489.31
2022-09-27T05:45:40.647Z,98499.97
2022-09-27T05:48:07.092Z,98495.91
2022-09-27T05:50:33.622Z,98502.72
2022-09-27T05:53:00.005Z,98507.69
2022-09-27T05:55:26.559Z,98511.22
2022-09-27T05:58:07.253Z,98528.38
2022-09-27T06:00:34.811Z,98523.78
2022-09-27T06:03:03.660Z,98528.13
2022-09-27T06:05:36.055Z,98531.16
2022-09-27T06:08:06.339Z,98534.88
2022-09-27T06:10:33.338Z,98541.34
2022-09-27T06:13:05.452Z,98545.06
2022-09-27T06:15:33.158Z,98545.72
2022-09-27T06:18:06.079Z,98561.66
2022-09-27T06:20:34.170Z,98557.84
2022-09-27T06:23:08.860Z,98562.03
2022-09-27T06:25:36.257Z,98566.13
2022-09-27T06:28:03.770Z,98562.84
2022-09-27T06:30:30.598Z,98571.69
2022-09-27T06:32:58.979Z,98564.84
2022-09-27T06:35:25.443Z,98570.78
2022-09-27T06:37:52.486Z,98576.63
2022-09-27T06:40:19.856Z,98578.31
2022-09-27T06:42:47.279Z,98572.69
2022-09-27T06:45:13.900Z,98578.97
2022-09-27T06:47:40.343Z,98578.88
2022-09-27T06:50:07.080Z,98598.78
2022-09-27T06:52:35.041Z,98607.22
2022-09-27T06:55:02.006Z,98603.28
2022-09-27T06:57:46.781Z,98614.03
2022-09-27T07:00:26.817Z,98609.59
2022-09-27T07:02:54.729Z,98613.22
2022-09-27T07:05:21.564Z,98615.59
2022-09-27T07:07:48.503Z,98616.34
2022-09-27T07:10:18.181Z,98626.91
2022-09-27T07:12:48.585Z,98626.91
2022-09-27T07:15:15.419Z,98629.34
2022-09-27T07:17:42.603Z,98635.00
2022-09-27T07:20:09.991Z,98630.44
2022-09-27T07:22:41.643Z,98629.63
2022-09-27T07:25:08.583Z,98625.56
2022-09-27T07:27:38.391Z,98627.34
2022-09-27T07:30:07.188Z,98639.63
2022-09-27T07:32:35.555Z,98641.50
2022-09-27T07:35:02.252Z,98638.28
2022-09-27T07:37:28.709Z,98635.75
2022-09-27T07:39:55.132Z,98658.75
2022-09-27T07:42:21.532Z,98644.69
2022-09-27T07:44:47.997Z,98642.78
2022-09-27T07:47:14.397Z,98645.25
2022-09-27T07:49:40.766Z,98637.28
2022-09-27T07:52:07.175Z,98644.03
2022-09-27T07:54:33.703Z,98643.72
2022-09-27T07:57:00.085Z,98641.69
2022-09-27T07:59:26.643Z,98646.84
2022-09-27T08:01:53.448Z,98651.63
2022-09-27T08:04:19.889Z,98648.25
2022-09-27T08:06:46.261Z,98655.53
2022-09-27T08:09:12.776Z,98644.06
2022-09-27T08:11:39.242Z,98659.91
2022-09-27T08:14:05.631Z,98659.41
2022-09-27T08:16:35.655Z,98660.25
2022-09-27T08:19:02.374Z,98657.63
2022-09-27T08:21:30.784Z,98661.47
2022-09-27T08:23:57.195Z,98667.22
2022-09-27T08:26:23.748Z,98669.69
2022-09-27T08:28:50.225Z,98669.84
2022-09-27T08:31:16.702Z,98676.44
2022-09-27T08:33:43.223Z,98672.69
2022-09-27T08:36:13.222Z,98677.84
2022-09-27T08:38:39.637Z,98674.44
2022-09-27T08:41:13.364Z,98674.13
2022-09-27T08:44:02.391Z,98679.56
2022-09-27T08:46:31.758Z,98680.91
2022-09-27T08:49:32.873Z,98689.97
2022-09-27T08:52:00.782Z,98688.31
2022-09-27T08:54:31.330Z,98682.88
2022-09-27T08:57:10.261Z,98687.16
2022-09-27T08:59:42.906Z,98686.22
2022-09-27T09:02:19.049Z,98686.50
2022-09-27T09:04:48.620Z,98680.97
2022-09-27T09:07:42.016Z,98680.53
2022-09-27T09:10:39.738Z,98690.41
2022-09-27T09:13:31.800Z,98700.59
2022-09-27T09:15:58.435Z,98699.78
2022-09-27T09:18:46.724Z,98709.50
2022-09-27T09:21:37.213Z,98700.97
2022-09-27T09:24:29.530Z,98702.03
2022-09-27T09:27:23.047Z,98689.38
2022-09-27T09:30:06.869Z,98700.47
2022-09-27T09:32:51.636Z,98705.19
2022-09-27T09:35:23.741Z,98702.09
2022-09-27T09:37:55.249Z,98701.84
2022-09-27T09:41:23.520Z,98696.59
2022-09-27T09:43:52.208Z,98690.91
2022-09-27T09:46:35.127Z,98691.56
2022-09-27T09:49:07.326Z,98692.94
2022-09-27T09:51:44.739Z,98690.13
2022-09-27T09:54:46.903Z,98684.91
2022-09-27T09:57:27.919Z,98695.94
2022-09-27T09:59:59.301Z,98693.94
2022-09-27T10:02:33.291Z,98694.63
2022-09-27T10:05:06.846Z,98690.25
2022-09-27T10:07:36.929Z,98690.47
2022-09-27T10:10:06.163Z,98688.22
2022-09-27T10:12:32.809Z,98691.97
2022-09-27T10:15:02.799Z,98685.78
2022-09-27T10:17:37.037Z,98675.75
2022-09-27T10:20:06.806Z,98680.34
2022-09-27T10:22:39.889Z,98675.53
2022-09-27T10:25:09.024Z,98682.81
2022-09-27T10:27:46.257Z,98683.31
2022-09-27T10:30:33.580Z,98673.94
2022-09-27T10:33:04.804Z,98676.06
2022-09-27T10:35:41.617Z,98669.97
2022-09-27T10:38:27.125Z,98674.00
2022-09-27T10:40:56.041Z,98668.22
2022-09-27T10:43:30.037Z,98668.72
2022-09-27T10:46:00.481Z,98664.50
2022-09-27T10:48:27.001Z,98663.41
2022-09-27T10:50:59.557Z,98654.72
2022-09-27T10:53:27.633Z,98657.56
2022-09-27T10:55:54.308Z,98648.56
2022-09-27T10:58:31.331Z,98652.41
2022-09-27T11:01:04.670Z,98644.75
2022-09-27T11:03:35.858Z,98648.53
2022-09-27T11:06:20.534Z,98644.56
2022-09-27T11:08:48.811Z,98642.25
2022-09-27T11:11:16.213Z,98646.19
2022-09-27T11:13:58.523Z,98637.59
2022-09-27T11:16:30.770Z,98634.72
2022-09-27T11:19:21.749Z,98636.03
2022-09-27T11:22:06.240Z,98631.50
2022-09-27T11:25:00.741Z,98638.63
2022-09-27T11:27:27.109Z,98631.78
2022-09-27T11:29:59.454Z,98635.75
2022-09-27T11:32:32.622Z,98635.53
2022-09-27T11:35:33.154Z,98630.97
2022-09-27T11:38:48.087Z,98632.06
2022-09-27T11:41:22.794Z,98633.31
2022-09-27T11:43:58.221Z,98634.16
2022-09-27T11:46:41.352Z,98630.09
2022-09-27T11:49:36.448Z,98613.06
2022-09-27T11:52:32.110Z,98611.72
2022-09-27T11:55:21.435Z,98608.31
2022-09-27T11:58:06.041Z,98608.47
2022-09-27T12:00:56.271Z,98617.81
2022-09-27T12:03:46.421Z,98624.22
2022-09-27T12:06:24.381Z,98630.00
2022-09-27T12:09:11.610Z,98622.03
2022-09-27T12:12:07.463Z,98639.16
2022-09-27T12:14:42.405Z,98645.03
2022-09-27T12:17:19.683Z,98645.91
2022-09-27T12:19:51.628Z,98647.56
2022-09-27T12:22:47.050Z,98650.41
2022-09-27T12:25:20.765Z,98645.41
2022-09-27T12:27:56.537Z,98650.41
2022-09-27T12:30:22.966Z,98645.88
2022-09-27T12:32:58.299Z,98648.59
2022-09-27T12:35:29.166Z,98640.06
2022-09-27T12:38:13.870Z,98640.41
2022-09-27T12:40:44.793Z,98634.91
2022-09-27T12:43:21.716Z,98629.38
2022-09-27T12:46:00.228Z,98624.97
2022-09-27T12:48:35.570Z,98623.44
2022-09-27T12:51:10.296Z,98628.69
2022-09-27T12:54:25.230Z,98619.63
2022-09-27T12:57:44.571Z,98618.69
2022-09-27T13:00:21.176Z,98612.78
2022-09-27T13:03:25.107Z,98617.09
2022-09-27T13:06:02.829Z,98609.25
2022-09-27T13:08:54.200Z,98602.72
2022-09-27T13:11:27.661Z,98604.03
2022-09-27T13:13:59.689Z,98601.13
2022-09-27T13:16:26.622Z,98594.88
2022-09-27T13:18:59.300Z,98591.72
2022-09-27T13:21:51.100Z,98582.03
2022-09-27T13:24:43.038Z,98587.53
2022-09-27T13:27:27.470Z,98592.34
2022-09-27T13:30:19.778Z,98586.84
2022-09-27T13:33:10.774Z,98578.53
2022-09-27T13:35:37.556Z,98575.81
2022-09-27T13:38:06.938Z,98584.28
2022-09-27T13:40:39.330Z,98576.84
2022-09-27T13:43:12.333Z,98575.25
2022-09-27T13:45:52.113Z,98571.31
2022-09-27T13:48:30.447Z,98572.91
2022-09-27T13:51:14.234Z,98580.81
2022-09-27T13:53:41.163Z,98581.16
2022-09-27T13:56:36.473Z,98591.94
2022-09-27T13:59:08.466Z,98594.03
2022-09-27T14:01:46.753Z,98595.25
2022-09-27T14:04:25.640Z,98589.50
2022-09-27T14:07:01.807Z,98592.69
2022-09-27T14:09:34.100Z,98590.13
2022-09-27T14:12:05.278Z,98589.19
2022-09-27T14:14:33.381Z,98585.75
2022-09-27T14:17:00.674Z,98592.91
2022-09-27T14:19:27.586Z,98592.88
2022-09-27T14:22:07.512Z,98598.38
2022-09-27T14:24:36.803Z,98611.22
2022-09-27T14:27:20.343Z,98611.28
2022-09-27T14:29:56.538Z,98613.97
2022-09-27T14:32:28.503Z,98610.22
2022-09-27T14:35:33.995Z,98614.06
2022-09-27T14:38:20.806Z,98604.09
2022-09-27T14:41:03.787Z,98608.44
2022-09-27T14:43:32.893Z,98611.91
2022-09-27T14:46:07.833Z,98603.94
2022-09-27T14:48:40.101Z,98602.69
2022-09-27T14:51:14.979Z,98589.84
2022-09-27T14:53:56.909Z,98591.81
2022-09-27T14:56:27.742Z,98594.09
2022-09-27T14:59:02.391Z,98596.63
2022-09-27T15:01:29.973Z,98598.13
2022-09-27T15:04:03.306Z,98604.75
2022-09-27T15:06:29.982Z,98609.66
2022-09-27T15:08:56.509Z,98610.63
2022-09-27T15:11:24.471Z,98605.38
2022-09-27T15:13:53.493Z,98607.31
2022-09-27T15:16:22.795Z,98606.81
2022-09-27T15:18:58.908Z,98604.56
2022-09-27T15:21:31.631Z,98614.06
2022-09-27T15:23:59.220Z,98607.13
2022-09-27T15:26:37.667Z,98617.72
2022-09-27T15:29:04.799Z,98607.88
2022-09-27T15:31:34.686Z,98613.31
2022-09-27T15:34:04.487Z,98611.91
2022-09-27T15:36:51.251Z,98619.06
2022-09-27T15:39:37.430Z,98609.81
2022-09-27T15:42:09.195Z,98612.66
2022-09-27T15:44:38.515Z,98623.56
2022-09-27T15:47:05.031Z,98621.97
2022-09-27T15:49:35.469Z,98623.03
2022-09-27T15:52:04.891Z,98625.72
2022-09-27T15:54:35.585Z,98625.19
2022-09-27T15:57:05.749Z,98628.72
2022-09-27T15:59:35.101Z,98633.00
2022-09-27T16:02:10.001Z,98642.13
2022-09-27T16:04:36.448Z,98635.91
2022-09-27T16:07:04.954Z,98637.03
2022-09-27T16:09:31.403Z,98633.34
2022-09-27T16:11:57.793Z,98640.53
2022-09-27T16:14:24.156Z,98634.84
2022-09-27T16:16:58.787Z,98638.72
2022-09-27T16:19:25.266Z,98642.97
2022-09-27T16:21:51.585Z,98645.81
2022-09-27T16:24:17.926Z,98646.72
2022-09-27T16:26:44.595Z,98650.28
2022-09-27T16:29:13.407Z,98649.09
2022-09-27T16:31:40.731Z,98651.13
2022-09-27T16:34:09.742Z,98647.56
2022-09-27T16:36:36.431Z,98648.06
2022-09-27T16:39:06.827Z,98656.06
2022-09-27T16:41:33.846Z,98655.78
2022-09-27T16:44:06.714Z,98647.78
2022-09-27T16:46:34.628Z,98656.34
2022-09-27T16:49:01.628Z,98655.28
2022-09-27T16:51:46.330Z,98651.66
2022-09-27T16:54:15.569Z,98650.88
2022-09-27T16:56:42.147Z,98652.09
2022-09-27T16:59:08.560Z,98655.56
2022-09-27T17:01:35.114Z,98647.22
2022-09-27T17:04:01.736Z,98654.63
2022-09-27T17:06:32.004Z,98658.47
2022-09-27T17:09:02.358Z,98650.22
2022-09-27T17:11:29.579Z,98651.44
2022-09-27T17:13:55.977Z,98643.66
2022-09-27T17:16:23.748Z,98656.09
2022-09-27T17:18:50.371Z,98667.34
2022-09-27T17:21:16.911Z,98666.19
2022-09-27T17:23:43.678Z,98665.44
2022-09-27T17:26:22.321Z,98665.16
2022-09-27T17:28:49.957Z,98676.38
2022-09-27T17:31:18.469Z,98682.75
2022-09-27T17:33:47.814Z,98694.16
2022-09-27T17:36:20.190Z,98685.63
2022-09-27T17:38:48.580Z,98687.50
2022-09-27T17:41:17.183Z,98691.09
2022-09-27T17:43:51.202Z,98688.00
2022-09-27T17:46:19.945Z,98685.53
2022-09-27T17:49:06.192Z,98686.22
2022-09-27T17:51:34.488Z,98685.94
2022-09-27T17:54:01.015Z,98696.25
2022-09-27T17:56:27.464Z,98682.78
2022-09-27T17:58:55.767Z,98685.13
2022-09-27T18:01:23.833Z,98684.03
2022-09-27T18:03:56.512Z,98685.31
2022-09-27T18:06:23.838Z,98689.63
2022-09-27T18:08:50.852Z,98699.00
2022-09-27T18:11:21.885Z,98696.91
2022-09-27T18:13:48.849Z,98695.22
2022-09-27T18:16:17.963Z,98685.78
2022-09-27T18:18:50.301Z,98693.31
2022-09-27T18:21:21.768Z,98692.28
2022-09-27T18:23:52.813Z,98694.50
2022-09-27T18:26:22.323Z,98695.50
2022-09-27T18:28:49.754Z,98700.59
2022-09-27T18:31:18.145Z,98707.81
2022-09-27T18:33:44.999Z,98702.41
2022-09-27T18:36:19.784Z,98713.41
2022-09-27T18:38:51.763Z,98707.66
2022-09-27T18:41:19.948Z,98702.53
2022-09-27T18:43:47.096Z,98702.69
2022-09-27T18:46:35.062Z,98694.53
2022-09-27T18:49:06.949Z,98701.13
2022-09-27T18:51:37.104Z,98691.19
2022-09-27T18:54:09.422Z,98687.16
2022-09-27T18:56:41.720Z,98686.50
2022-09-27T18:59:09.621Z,98689.66
2022-09-27T19:01:43.533Z,98694.44
2022-09-27T19:04:11.716Z,98682.69
2022-09-27T19:06:38.803Z,98685.53
2022-09-27T19:09:06.400Z,98676.34
2022-09-27T19:11:34.028Z,98679.94
2022-09-27T19:14:00.887Z,98681.34
2022-09-27T19:16:28.463Z,98678.06
2022-09-27T19:18:55.021Z,98676.72
2022-09-27T19:21:27.501Z,98681.31
2022-09-27T19:23:57.602Z,98677.56
2022-09-27T19:26:25.990Z,98688.09
2022-09-27T19:28:52.830Z,98675.06
2022-09-27T19:31:24.545Z,98679.41
2022-09-27T19:33:54.064Z,98677.53
2022-09-27T19:36:24.110Z,98671.53
2022-09-27T19:38:51.897Z,98678.38
2022-09-27T19:41:18.771Z,98677.28
2022-09-27T19:43:50.743Z,98676.59
2022-09-27T19:46:17.803Z,98676.91
2022-09-27T19:48:45.687Z,98678.50
2022-09-27T19:51:20.244Z,98667.06
2022-09-27T19:53:46.660Z,98661.25
2022-09-27T19:56:13.687Z,98674.72
2022-09-27T19:58:41.458Z,98664.06
2022-09-27T20:01:14.399Z,98664.13
2022-09-27T20:03:43.739Z,98665.78
2022-09-27T20:06:13.126Z,98663.69
2022-09-27T20:08:39.787Z,98669.44
2022-09-27T20:11:09.395Z,98669.25
2022-09-27T20:13:37.012Z,98664.66
2022-09-27T20:16:04.910Z,98656.63
2022-09-27T20:18:31.790Z,98661.63
2022-09-27T20:21:02.485Z,98649.84
2022-09-27T20:23:30.393Z,98651.97
2022-09-27T20:26:20.620Z,98649.44
2022-09-27T20:28:49.461Z,98645.81
2022-09-27T20:31:24.290Z,98654.47
2022-09-27T20:33:51.135Z,98640.97
2022-09-27T20:36:26.119Z,98640.09
2022-09-27T20:38:59.636Z,98628.78
2022-09-27T20:41:30.457Z,98637.91
2022-09-27T20:44:00.172Z,98622.28
2022-09-27T20:46:26.800Z,98615.38
2022-09-27T20:48:56.559Z,98609.50
2022-09-27T20:51:23.716Z,98608.66
2022-09-27T20:53:52.889Z,98598.56
2022-09-27T20:56:25.284Z,98598.34
2022-09-27T20:58:53.899Z,98594.75
2022-09-27T21:01:21.891Z,98592.94
2022-09-27T21:03:52.723Z,98600.16
2022-09-27T21:06:22.765Z,98589.00
2022-09-27T21:08:50.405Z,98571.94
2022-09-27T21:11:17.813Z,98575.72
2022-09-27T21:13:46.028Z,98584.81
2022-09-27T21:16:15.301Z,98588.72
2022-09-27T21:18:42.353Z,98582.47
2022-09-27T21:21:11.446Z,98581.69
2022-09-27T21:23:44.194Z,98585.91
2022-09-27T21:26:14.483Z,98589.78
2022-09-27T21:28:55.539Z,98584.38
2022-09-27T21:31:30.050Z,98584.00
2022-09-27T21:33:59.384Z,98575.97
2022-09-27T21:36:31.853Z,98576.81
2022-09-27T21:38:58.807Z,98571.50
2022-09-27T21:41:26.838Z,98573.84
2022-09-27T21:43:53.659Z,98568.00
2022-09-27T21:46:23.414Z,98567.22
2022-09-27T21:48:55.692Z,98566.28
2022-09-27T21:51:26.195Z,98560.78
2022-09-27T21:53:58.631Z,98548.44
2022-09-27T21:56:27.220Z,98550.03
2022-09-27T21:58:53.790Z,98542.53
2022-09-27T22:01:22.726Z,98542.47
2022-09-27T22:03:51.399Z,98538.88
2022-09-27T22:06:23.025Z,98532.91
2022-09-27T22:08:50.432Z,98540.59
2022-09-27T22:11:25.529Z,98524.59
2022-09-27T22:13:52.209Z,98517.44
2022-09-27T22:16:20.501Z,98515.63
2022-09-27T22:18:49.374Z,98508.06
2022-09-27T22:21:19.818Z,98501.69
2022-09-27T22:23:46.198Z,98491.38
2022-09-27T22:26:18.696Z,98481.22
2022-09-27T22:28:46.256Z,98484.91
2022-09-27T22:31:15.167Z,98491.56
2022-09-27T22:33:42.833Z,98495.88
2022-09-27T22:36:09.660Z,98491.13
2022-09-27T22:38:36.039Z,98471.72
2022-09-27T22:41:03.246Z,98474.56
2022-09-27T22:43:29.831Z,98471.91
2022-09-27T22:45:57.345Z,98468.13
2022-09-27T22:48:23.681Z,98462.38
2022-09-27T22:50:50.001Z,98456.59
2022-09-27T22:53:16.368Z,98448.25
2022-09-27T22:55:42.814Z,98446.72
2022-09-27T22:58:09.407Z,98439.34
2022-09-27T23:00:38.050Z,98441.91
2022-09-27T23:03:04.447Z,98445.13
2022-09-27T23:05:30.813Z,98440.69
2022-09-27T23:07:57.181Z,98430.78
2022-09-27T23:10:23.539Z,98433.44
2022-09-27T23:12:54.686Z,98431.72
2022-09-27T23:15:21.310Z,98416.28
2022-09-27T23:17:51.541Z,98411.81
2022-09-27T23:20:18.468Z,98406.00
2022-09-27T23:22:45.425Z,98403.66
2022-09-27T23:25:11.838Z,98386.84
2022-09-27T23:27:47.556Z,98389.94
2022-09-27T23:30:16.009Z,98387.59
2022-09-27T23:32:45.960Z,98387.78
2022-09-27T23:35:13.107Z,98376.66
2022-09-27T23:37:40.035Z,98375.53
2022-09-27T23:40:07.087Z,98371.72
2022-09-27T23:42:33.649Z,98365.06
2022-09-27T23:45:01.053Z,98367.91
2022-09-27T23:47:28.323Z,98358.25
2022-09-27T23:49:54.737Z,98358.13
2022-09-27T23:52:21.108Z,98350.66
2022-09-27T23:54:47.470Z,98345.91
2022-09-27T23:57:13.864Z,98346.00
2022-09-27T23:59:41.543Z,98339.16
